Time;durP1;ratioP1;P1;durP2;ratioP2;P2;SDS_P1;SDS_P2;PMS_P1;PMS_P2;Temp;Humidity;BMP_temperature;BMP_pressure;BME280_temperature;BME280_humidity;BME280_pressure;Samples;Min_cycle;Max_cycle;Signal;HPM_P1;HPM_P2
2024/04/13 00:00:11;;;;;;;5.37;4.33;;;14.20;99.90;;;;;;5393911;26;20511;-90
2024/04/13 00:02:43;;;;;;;7.50;4.73;;;14.20;99.90;;;;;;5393718;26;20447;-90
2024/04/13 00:05:11;;;;;;;5.80;4.43;;;14.20;99.90;;;;;;5393958;26;20458;-90
2024/04/13 00:07:44;;;;;;;6.40;4.03;;;14.30;99.90;;;;;;5395171;26;20454;-90
2024/04/13 00:10:11;;;;;;;4.57;4.17;;;14.30;99.90;;;;;;5395550;26;21011;-90
2024/04/13 00:12:42;;;;;;;6.97;4.87;;;14.30;99.90;;;;;;5394756;26;20462;-90
2024/04/13 00:15:10;;;;;;;5.93;4.33;;;14.30;99.90;;;;;;5396217;26;20528;-90
2024/04/13 00:17:40;;;;;;;4.23;3.80;;;14.30;99.90;;;;;;5395067;26;20455;-90
2024/04/13 00:20:08;;;;;;;5.97;4.67;;;14.30;99.90;;;;;;5394410;26;20510;-91
2024/04/13 00:22:39;;;;;;;5.43;4.50;;;14.30;99.90;;;;;;5395013;26;20459;-91
2024/04/13 00:25:13;;;;;;;6.00;4.50;;;14.30;99.90;;;;;;5394947;26;20461;-90
2024/04/13 00:27:44;;;;;;;7.93;4.80;;;14.30;99.90;;;;;;5396635;26;20454;-90
2024/04/13 00:30:12;;;;;;;6.27;4.27;;;14.30;99.90;;;;;;5397015;26;20470;-91
2024/04/13 00:32:42;;;;;;;6.27;4.73;;;14.30;99.90;;;;;;5397743;26;20458;-90
2024/04/13 00:35:10;;;;;;;5.03;4.20;;;14.30;99.90;;;;;;5397283;26;20541;-90
2024/04/13 00:37:43;;;;;;;5.73;4.53;;;14.30;99.90;;;;;;5400169;26;20451;-91
2024/04/13 00:40:14;;;;;;;6.10;4.40;;;14.30;99.90;;;;;;5395303;26;20932;-91
2024/04/13 00:42:45;;;;;;;6.07;4.23;;;14.30;99.90;;;;;;5393930;26;20508;-91
2024/04/13 00:45:12;;;;;;;5.10;3.90;;;14.30;99.90;;;;;;5394168;26;20503;-91
2024/04/13 00:47:43;;;;;;;5.33;3.90;;;14.30;99.90;;;;;;5393593;26;20511;-91
2024/04/13 00:50:11;;;;;;;5.10;4.30;;;14.30;99.90;;;;;;5396667;26;20466;-90
2024/04/13 00:52:44;;;;;;;7.33;5.23;;;14.30;99.90;;;;;;5396850;26;20455;-90
2024/04/13 00:55:15;;;;;;;5.77;4.73;;;14.30;99.90;;;;;;5392462;26;20512;-90
2024/04/13 00:57:48;;;;;;;5.23;4.60;;;14.30;99.90;;;;;;5398897;26;20524;-90
2024/04/13 01:00:19;;;;;;;7.73;4.50;;;14.30;99.90;;;;;;5428858;26;20473;-90
2024/04/13 01:02:50;;;;;;;5.30;4.10;;;14.30;99.90;;;;;;5429122;26;20510;-90
2024/04/13 01:05:18;;;;;;;5.90;4.70;;;14.30;99.90;;;;;;5428617;26;20516;-90
2024/04/13 01:07:49;;;;;;;5.80;4.60;;;14.30;99.90;;;;;;5429891;26;20543;-90
2024/04/13 01:10:21;;;;;;;6.43;4.30;;;14.30;99.90;;;;;;5429192;26;20527;-90
2024/04/13 01:12:52;;;;;;;8.73;4.40;;;14.40;99.90;;;;;;5430796;26;20833;-91
2024/04/13 01:15:27;;;;;;;4.57;4.03;;;14.30;99.90;;;;;;5430651;26;20453;-90
2024/04/13 01:17:58;;;;;;;5.30;4.00;;;14.30;99.90;;;;;;5430145;26;20509;-90
2024/04/13 01:20:27;;;;;;;4.93;4.40;;;14.30;99.90;;;;;;5428054;26;20545;-90
2024/04/13 01:23:02;;;;;;;5.90;4.83;;;14.30;99.90;;;;;;5427833;26;20524;-90
2024/04/13 01:25:33;;;;;;;4.63;4.00;;;14.30;99.90;;;;;;5429692;26;21036;-90
2024/04/13 01:28:04;;;;;;;4.10;3.70;;;14.30;99.90;;;;;;5462527;26;20409;-90
2024/04/13 01:30:34;;;;;;;5.50;4.07;;;14.30;99.90;;;;;;5427969;26;20449;-90
2024/04/13 01:33:05;;;;;;;5.97;3.63;;;14.30;99.90;;;;;;5428603;26;20791;-90
2024/04/13 01:35:33;;;;;;;4.80;4.30;;;14.30;99.90;;;;;;5428845;26;20545;-90
2024/04/13 01:38:03;;;;;;;6.53;4.10;;;14.30;99.90;;;;;;5428350;26;20457;-90
2024/04/13 01:40:36;;;;;;;5.93;4.27;;;14.30;99.90;;;;;;5427283;26;20465;-90
2024/04/13 01:43:06;;;;;;;4.67;4.27;;;14.30;99.90;;;;;;5427814;26;20453;-89
2024/04/13 01:45:34;;;;;;;5.00;3.93;;;14.30;99.90;;;;;;5428211;26;20453;-90
2024/04/13 01:48:04;;;;;;;5.13;3.80;;;14.30;99.90;;;;;;5428116;26;20466;-90
2024/04/13 01:50:32;;;;;;;5.67;4.30;;;14.30;99.90;;;;;;5427623;26;20510;-90
2024/04/13 01:53:03;;;;;;;4.73;4.20;;;14.30;99.90;;;;;;5460215;26;20450;-90
2024/04/13 01:55:33;;;;;;;4.77;4.37;;;14.30;99.90;;;;;;5427623;26;20501;-90
2024/04/13 01:58:03;;;;;;;5.70;4.50;;;14.20;99.90;;;;;;5426870;26;20469;-90
2024/04/13 02:00:36;;;;;;;5.03;4.63;;;14.20;99.90;;;;;;5425667;26;20449;-90
2024/04/13 02:03:08;;;;;;;6.87;4.10;;;14.20;99.90;;;;;;5427041;26;20461;-90
2024/04/13 02:05:39;;;;;;;5.50;5.00;;;14.20;99.90;;;;;;5426896;26;20985;-89
2024/04/13 02:08:10;;;;;;;5.33;4.40;;;14.20;99.90;;;;;;5426566;26;20853;-89
2024/04/13 02:10:40;;;;;;;6.03;5.20;;;14.20;99.90;;;;;;5426849;26;20461;-89
2024/04/13 02:13:10;;;;;;;4.90;4.40;;;14.10;99.90;;;;;;5427642;26;20461;-89
2024/04/13 02:15:46;;;;;;;6.00;5.40;;;14.10;99.90;;;;;;5462455;26;20791;-90
2024/04/13 02:18:17;;;;;;;6.67;5.13;;;14.10;99.90;;;;;;5461958;26;20459;-90
2024/04/13 02:20:45;;;;;;;6.03;5.43;;;14.10;99.90;;;;;;5429057;26;20537;-90
2024/04/13 02:23:16;;;;;;;6.50;5.07;;;14.10;99.90;;;;;;5430464;26;20552;-90
2024/04/13 02:25:47;;;;;;;5.30;4.63;;;14.10;99.90;;;;;;5430139;26;20457;-90
2024/04/13 02:28:17;;;;;;;7.20;6.10;;;14.10;99.90;;;;;;5429663;26;20535;-90
2024/04/13 02:30:45;;;;;;;5.27;4.53;;;14.10;99.90;;;;;;5428134;26;20457;-90
2024/04/13 02:33:16;;;;;;;6.30;5.70;;;14.10;99.90;;;;;;5429891;26;20506;-90
2024/04/13 02:35:44;;;;;;;5.87;5.37;;;14.10;99.90;;;;;;5429708;26;20538;-90
2024/04/13 02:38:15;;;;;;;5.43;4.93;;;14.10;99.90;;;;;;5429626;26;20500;-90
2024/04/13 02:40:43;;;;;;;6.80;6.17;;;14.10;99.90;;;;;;5428704;26;20533;-90
2024/04/13 02:43:16;;;;;;;6.07;5.47;;;14.10;99.90;;;;;;5428644;26;20517;-90
2024/04/13 02:45:44;;;;;;;5.80;5.27;;;14.10;99.90;;;;;;5428950;26;20453;-90
2024/04/13 02:48:14;;;;;;;6.53;5.67;;;14.10;99.90;;;;;;5427936;26;20508;-90
2024/04/13 02:50:46;;;;;;;8.77;5.70;;;14.10;99.90;;;;;;5427240;26;20540;-89
2024/04/13 02:53:16;;;;;;;7.40;5.50;;;14.10;99.90;;;;;;5426761;26;20461;-91
2024/04/13 02:55:44;;;;;;;7.03;5.87;;;14.10;99.90;;;;;;5427050;26;20501;-90
2024/04/13 02:58:17;;;;;;;7.20;6.53;;;14.10;99.90;;;;;;5427223;26;20462;-90
2024/04/13 03:00:51;;;;;;;6.80;5.87;;;14.10;99.90;;;;;;5426649;26;20573;-90
2024/04/13 03:03:21;;;;;;;6.53;5.87;;;14.10;99.90;;;;;;5425009;26;20445;-90
2024/04/13 03:05:58;;;;;;;7.60;6.17;;;14.10;99.90;;;;;;5426259;26;20559;-90
2024/04/13 03:08:28;;;;;;;6.30;5.37;;;14.10;99.90;;;;;;5436384;26;20990;-89
2024/04/13 03:10:56;;;;;;;8.37;6.10;;;14.10;99.90;;;;;;5427577;26;20457;-89
2024/04/13 03:13:29;;;;;;;7.80;6.20;;;14.10;99.90;;;;;;5429067;26;20566;-90
2024/04/13 03:15:58;;;;;;;7.10;6.43;;;14.10;99.90;;;;;;5427834;26;20505;-89
2024/04/13 03:18:33;;;;;;;6.10;5.57;;;14.10;99.90;;;;;;5427979;26;20481;-90
2024/04/13 03:21:05;;;;;;;6.87;6.17;;;14.10;99.90;;;;;;5429011;26;20503;-90
2024/04/13 03:23:38;;;;;;;7.13;6.53;;;14.00;99.90;;;;;;5427844;26;20454;-89
2024/04/13 03:26:05;;;;;;;6.13;5.53;;;14.00;99.90;;;;;;5427813;26;21010;-89
2024/04/13 03:28:38;;;;;;;7.33;6.20;;;14.00;99.90;;;;;;5426972;26;20528;-89
2024/04/13 03:31:06;;;;;;;7.03;6.30;;;14.00;99.90;;;;;;5427007;26;20461;-89
2024/04/13 03:33:36;;;;;;;6.17;5.57;;;14.00;99.90;;;;;;5427846;26;20444;-89
2024/04/13 03:36:05;;;;;;;7.20;6.37;;;14.00;99.90;;;;;;5427622;26;20445;-89
2024/04/13 03:38:36;;;;;;;7.13;6.40;;;14.00;99.90;;;;;;5426877;26;20473;-89
2024/04/13 03:41:08;;;;;;;7.27;5.80;;;14.00;99.90;;;;;;5426600;26;20788;-89
2024/04/13 03:43:39;;;;;;;7.30;6.63;;;14.00;99.90;;;;;;5426174;26;20535;-89
2024/04/13 03:46:10;;;;;;;6.20;5.50;;;14.00;99.90;;;;;;5426852;26;20460;-89
2024/04/13 03:48:41;;;;;;;8.47;5.83;;;14.00;99.90;;;;;;5426657;26;20469;-89
2024/04/13 03:51:13;;;;;;;6.53;5.50;;;13.90;99.90;;;;;;5426014;26;20792;-89
2024/04/13 03:53:42;;;;;;;7.07;6.23;;;13.90;99.90;;;;;;5425884;26;20453;-89
2024/04/13 03:56:13;;;;;;;6.70;5.23;;;13.90;99.90;;;;;;5425376;26;20588;-89
2024/04/13 03:58:43;;;;;;;6.73;5.67;;;13.90;99.90;;;;;;5425654;26;20477;-89
2024/04/13 04:01:13;;;;;;;7.27;6.33;;;13.90;99.90;;;;;;5425423;26;20853;-89
2024/04/13 04:03:41;;;;;;;7.13;5.70;;;13.90;99.90;;;;;;5425889;26;20457;-89
2024/04/13 04:06:12;;;;;;;7.50;5.87;;;13.90;99.90;;;;;;5425459;26;20490;-89
2024/04/13 04:08:40;;;;;;;6.60;5.87;;;13.90;99.90;;;;;;5425717;26;20517;-90
2024/04/13 04:11:10;;;;;;;6.17;5.57;;;13.90;99.90;;;;;;5425379;26;20449;-89
2024/04/13 04:13:38;;;;;;;6.70;6.00;;;13.90;99.90;;;;;;5425397;26;20982;-89
2024/04/13 04:16:11;;;;;;;6.03;5.07;;;13.90;99.90;;;;;;5425315;26;20501;-89
2024/04/13 04:18:40;;;;;;;7.00;6.30;;;13.80;99.90;;;;;;5425202;26;20487;-89
2024/04/13 04:21:11;;;;;;;6.97;6.33;;;13.80;99.90;;;;;;5424856;26;20453;-89
2024/04/13 04:23:38;;;;;;;7.13;6.43;;;13.80;99.90;;;;;;5425005;26;20563;-88
2024/04/13 04:26:09;;;;;;;6.83;6.13;;;13.80;99.90;;;;;;5425250;26;20460;-89
2024/04/13 04:28:42;;;;;;;7.27;5.93;;;13.80;99.90;;;;;;5424817;26;20567;-89
2024/04/13 04:31:15;;;;;;;7.20;5.90;;;13.80;99.90;;;;;;5424915;26;20970;-89
2024/04/13 04:33:43;;;;;;;6.70;6.10;;;13.80;99.90;;;;;;5425312;26;20461;-89
2024/04/13 04:36:14;;;;;;;6.10;5.50;;;13.80;99.90;;;;;;5426267;26;20461;-89
2024/04/13 04:38:42;;;;;;;6.20;5.70;;;13.70;99.90;;;;;;5425370;26;20560;-89
2024/04/13 04:41:12;;;;;;;7.10;6.40;;;13.70;99.90;;;;;;5434287;26;20529;-89
2024/04/13 04:43:40;;;;;;;7.13;6.40;;;13.70;99.90;;;;;;5442801;26;20453;-88
2024/04/13 04:46:10;;;;;;;6.13;5.53;;;13.70;99.90;;;;;;5441986;26;20453;-88
2024/04/13 04:48:40;;;;;;;7.93;6.20;;;13.70;99.90;;;;;;5437313;26;20513;-89
2024/04/13 04:51:11;;;;;;;6.60;6.00;;;13.70;99.90;;;;;;5425546;26;20461;-88
2024/04/13 04:53:39;;;;;;;6.10;5.50;;;13.70;99.90;;;;;;5425157;26;20564;-88
2024/04/13 04:56:09;;;;;;;6.37;5.80;;;13.70;99.90;;;;;;5425428;26;20508;-88
2024/04/13 04:58:37;;;;;;;6.23;5.63;;;13.70;99.90;;;;;;5425205;26;20481;-89
2024/04/13 05:01:07;;;;;;;6.77;5.67;;;13.70;99.90;;;;;;5425010;26;20575;-88
2024/04/13 05:03:35;;;;;;;6.60;6.00;;;13.70;99.90;;;;;;5424882;26;20460;-88
2024/04/13 05:06:08;;;;;;;6.33;5.70;;;13.70;99.90;;;;;;5424754;26;20505;-89
2024/04/13 05:08:36;;;;;;;7.20;6.13;;;13.70;99.90;;;;;;5424574;26;20485;-89
2024/04/13 05:11:06;;;;;;;6.80;6.10;;;13.70;99.90;;;;;;5423730;26;20572;-89
2024/04/13 05:13:34;;;;;;;7.30;6.67;;;13.80;99.90;;;;;;5424480;26;20511;-89
2024/04/13 05:16:05;;;;;;;6.57;5.97;;;13.80;99.90;;;;;;5424497;26;20461;-89
2024/04/13 05:18:32;;;;;;;8.37;5.83;;;13.80;99.90;;;;;;5424743;26;20515;-89
2024/04/13 05:21:03;;;;;;;7.63;6.23;;;13.80;99.90;;;;;;5425267;26;20457;-88
2024/04/13 05:23:33;;;;;;;8.40;6.90;;;13.80;99.90;;;;;;5425263;26;20449;-89
2024/04/13 05:26:05;;;;;;;6.93;6.27;;;13.80;99.90;;;;;;5423965;26;20460;-88
2024/04/13 05:28:32;;;;;;;6.43;5.70;;;13.80;99.90;;;;;;5424714;26;20481;-89
2024/04/13 05:31:09;;;;;;;6.73;5.87;;;13.80;99.90;;;;;;5424893;26;20465;-89
2024/04/13 05:33:38;;;;;;;8.35;6.10;;;13.90;99.90;;;;;;5423111;26;20377;-89
2024/04/13 05:36:09;;;;;;;7.67;5.63;;;14.00;99.90;;;;;;5424547;26;20227;-89
2024/04/13 05:38:40;;;;;;;6.07;5.30;;;14.00;99.90;;;;;;5424054;26;20525;-89
2024/04/13 05:41:10;;;;;;;6.70;6.00;;;14.00;99.90;;;;;;5424516;26;20866;-89
2024/04/13 05:43:38;;;;;;;9.53;6.40;;;14.00;99.90;;;;;;5423984;26;20457;-89
2024/04/13 05:46:08;;;;;;;7.00;5.57;;;14.00;99.90;;;;;;5423498;26;20536;-89
2024/04/13 05:48:36;;;;;;;8.37;6.83;;;14.10;99.90;;;;;;5424573;26;21013;-89
2024/04/13 05:51:09;;;;;;;6.83;6.13;;;14.00;99.90;;;;;;5424256;26;20840;-89
2024/04/13 05:53:40;;;;;;;6.87;6.13;;;14.00;99.90;;;;;;5423526;26;20506;-89
2024/04/13 05:56:11;;;;;;;6.93;5.83;;;14.10;99.90;;;;;;5423801;26;20474;-89
2024/04/13 05:58:39;;;;;;;6.47;5.50;;;14.10;99.90;;;;;;5424072;26;20514;-89
2024/04/13 06:01:23;;;;;;;;;;;;;;;;;;;;;
2024/04/13 06:03:55;;;;;;;5.80;5.27;;;14.20;99.90;;;;;;5426943;26;20840;-91
2024/04/13 06:09:25;;;;;;;6.27;5.67;;;14.20;99.90;;;;;;5427587;26;20525;-91
2024/04/13 06:12:31;;;;;;;6.77;5.80;;;14.30;99.90;;;;;;5428095;26;20517;-92
2024/04/13 06:15:30;;;;;;;7.10;5.93;;;14.40;99.90;;;;;;5410766;26;20457;-91
2024/04/13 06:18:12;;;;;;;6.93;6.07;;;14.40;99.90;;;;;;5427589;26;20461;-92
2024/04/13 06:20:44;;;;;;;5.70;5.20;;;14.50;99.90;;;;;;5427600;26;20446;-91
2024/04/13 06:23:17;;;;;;;6.20;5.47;;;14.60;99.90;;;;;;5427187;26;20453;-92
2024/04/13 06:25:49;;;;;;;6.10;4.87;;;14.60;99.90;;;;;;5438586;26;20484;-89
2024/04/13 06:29:10;;;;;;;6.10;5.50;;;14.70;99.90;;;;;;5435337;26;20540;-93
2024/04/13 06:31:46;;;;;;;7.90;5.50;;;14.90;99.90;;;;;;5428950;26;20509;-92
2024/04/13 06:34:59;;;;;;;6.03;5.07;;;14.90;99.90;;;;;;5428725;26;20457;-92
2024/04/13 06:37:32;;;;;;;9.00;5.50;;;15.00;99.90;;;;;;5425828;26;20921;-90
2024/04/13 06:40:03;;;;;;;8.93;4.87;;;15.00;99.90;;;;;;5424756;26;20465;-91
2024/04/13 06:42:55;;;;;;;4.97;4.10;;;15.10;99.90;;;;;;5425773;26;20461;-91
2024/04/13 06:45:35;;;;;;;5.10;4.30;;;15.10;99.90;;;;;;5428132;26;20563;-91
2024/04/13 06:48:09;;;;;;;5.70;4.67;;;15.20;99.90;;;;;;5429761;26;20491;-91
2024/04/13 06:50:54;;;;;;;8.07;4.70;;;15.30;99.90;;;;;;5431036;26;20860;-91
2024/04/13 06:53:34;;;;;;;8.53;4.50;;;15.40;99.90;;;;;;5430834;26;20457;-91
2024/04/13 06:56:06;;;;;;;7.07;4.67;;;15.40;99.90;;;;;;5429270;26;20536;-91
2024/04/13 06:58:43;;;;;;;5.40;4.83;;;15.50;99.90;;;;;;5429797;26;20545;-91
2024/04/13 07:01:15;;;;;;;5.57;4.50;;;15.60;99.90;;;;;;5432280;26;20615;-91
2024/04/13 07:03:46;;;;;;;9.73;5.20;;;15.70;99.90;;;;;;5430414;26;20507;-91
2024/04/13 07:06:16;;;;;;;6.60;4.73;;;15.80;99.90;;;;;;5431121;26;20449;-91
2024/04/13 07:08:56;;;;;;;6.63;4.67;;;15.80;99.90;;;;;;5430972;26;20499;-91
2024/04/13 07:11:30;;;;;;;5.37;3.90;;;15.80;99.90;;;;;;5431006;26;20501;-91
2024/04/13 07:14:03;;;;;;;5.80;4.60;;;15.80;99.90;;;;;;5429753;26;20445;-91
2024/04/13 07:25:11;;;;;;;5.90;4.47;;;16.00;99.90;;;;;;5347719;26;21040;-68
2024/04/13 07:27:39;;;;;;;7.27;4.57;;;16.10;99.90;;;;;;5349492;26;20429;-68
2024/04/13 07:30:12;;;;;;;6.60;4.90;;;16.20;99.90;;;;;;5349609;26;20457;-68
2024/04/13 07:32:39;;;;;;;7.03;4.50;;;16.20;99.90;;;;;;5350372;26;20431;-68
2024/04/13 07:35:09;;;;;;;9.77;4.90;;;16.30;99.90;;;;;;5348135;26;20942;-68
2024/04/13 07:37:37;;;;;;;8.37;4.67;;;16.30;99.90;;;;;;5349886;26;20556;-68
2024/04/13 07:40:08;;;;;;;5.53;4.20;;;16.30;99.90;;;;;;5349249;26;20826;-68
2024/04/13 07:42:35;;;;;;;7.33;4.40;;;16.30;99.90;;;;;;5350489;26;20376;-68
2024/04/13 07:45:06;;;;;;;5.20;4.17;;;16.30;99.90;;;;;;5349432;26;20934;-68
2024/04/13 07:47:36;;;;;;;6.10;4.70;;;16.30;99.90;;;;;;5347848;26;20986;-68
2024/04/13 07:50:06;;;;;;;6.53;4.50;;;16.30;99.90;;;;;;5349202;26;20505;-69
2024/04/13 07:52:34;;;;;;;10.00;5.20;;;16.40;99.90;;;;;;5347421;26;20430;-69
2024/04/13 07:55:04;;;;;;;7.87;4.10;;;16.40;99.90;;;;;;5349285;26;20481;-68
2024/04/13 07:57:31;;;;;;;5.73;4.00;;;16.40;99.90;;;;;;5347759;26;20497;-68
2024/04/13 08:00:01;;;;;;;6.50;4.10;;;16.40;99.90;;;;;;5349104;26;20498;-68
2024/04/13 08:02:40;;;;;;;6.20;4.80;;;16.50;99.90;;;;;;5349553;26;20555;-69
2024/04/13 08:05:10;;;;;;;7.97;4.37;;;16.50;99.90;;;;;;5349968;26;20524;-69
2024/04/13 08:07:37;;;;;;;6.90;5.00;;;16.50;99.90;;;;;;5351241;26;20378;-68
2024/04/13 08:10:08;;;;;;;5.00;4.40;;;16.60;99.90;;;;;;5350407;26;21178;-68
2024/04/13 08:12:36;;;;;;;15.03;5.13;;;16.70;99.90;;;;;;5350348;26;20449;-68
2024/04/13 08:15:08;;;;;;;4.63;4.17;;;16.90;99.90;;;;;;5349920;26;20473;-69
2024/04/13 08:17:36;;;;;;;9.60;4.97;;;17.00;99.90;;;;;;5351676;26;20418;-68
2024/04/13 08:20:10;;;;;;;6.50;4.40;;;17.10;99.90;;;;;;5349912;26;20434;-67
2024/04/13 08:22:39;;;;;;;7.73;4.43;;;17.20;99.90;;;;;;5348216;26;20510;-68
2024/04/13 08:25:09;;;;;;;4.53;3.60;;;17.20;99.90;;;;;;5350251;26;20429;-68
2024/04/13 08:27:36;;;;;;;5.13;4.07;;;17.30;99.90;;;;;;5350421;26;20437;-68
2024/04/13 08:30:09;;;;;;;5.20;3.83;;;17.30;99.90;;;;;;5348238;26;20497;-68
2024/04/13 08:32:37;;;;;;;6.70;3.80;;;17.40;99.90;;;;;;5351624;26;20904;-69
2024/04/13 08:35:10;;;;;;;8.07;4.67;;;17.40;99.90;;;;;;5348165;26;20946;-68
2024/04/13 08:37:37;;;;;;;6.23;4.40;;;17.40;99.90;;;;;;5351209;26;20395;-68
2024/04/13 08:40:12;;;;;;;8.10;4.37;;;17.50;99.90;;;;;;5349853;26;20445;-68
2024/04/13 08:42:41;;;;;;;7.00;4.63;;;17.60;99.90;;;;;;5351407;26;20500;-69
2024/04/13 08:45:12;;;;;;;9.70;5.67;;;17.70;99.90;;;;;;5350176;26;20430;-68
2024/04/13 08:47:42;;;;;;;6.97;5.10;;;17.80;99.90;;;;;;5349848;26;20471;-68
2024/04/13 08:50:16;;;;;;;8.43;4.80;;;17.90;99.90;;;;;;5348777;26;21105;-69
2024/04/13 08:52:45;;;;;;;5.73;4.23;;;17.90;99.90;;;;;;5350263;26;20950;-67
2024/04/13 08:55:15;;;;;;;6.10;4.50;;;18.00;99.90;;;;;;5349214;26;20775;-68
2024/04/13 08:57:43;;;;;;;6.60;5.83;;;18.00;99.90;;;;;;5347073;26;20425;-68
2024/04/13 09:00:19;;;;;;;5.10;4.20;;;18.10;99.90;;;;;;5349164;26;20462;-69
2024/04/13 09:02:52;;;;;;;5.13;4.47;;;18.20;99.90;;;;;;5350277;26;20754;-68
2024/04/13 09:05:27;;;;;;;6.00;4.30;;;18.30;99.90;;;;;;5349719;26;20434;-69
2024/04/13 09:07:56;;;;;;;7.17;5.83;;;18.30;99.90;;;;;;5350223;26;20456;-68
2024/04/13 09:10:26;;;;;;;5.13;4.07;;;18.30;99.90;;;;;;5346832;26;20878;-68
2024/04/13 09:12:54;;;;;;;5.73;4.33;;;18.40;99.90;;;;;;5349834;26;20497;-68
2024/04/13 09:15:24;;;;;;;6.00;4.50;;;18.40;99.90;;;;;;5348990;26;20434;-68
2024/04/13 09:17:55;;;;;;;6.10;4.50;;;18.40;99.90;;;;;;5349963;26;20399;-68
2024/04/13 09:20:29;;;;;;;5.40;4.80;;;18.40;99.90;;;;;;5349484;26;20458;-69
2024/04/13 09:22:58;;;;;;;7.97;4.77;;;18.50;99.90;;;;;;5346038;26;20458;-69
2024/04/13 09:25:28;;;;;;;7.00;4.70;;;18.60;99.90;;;;;;5350176;26;20978;-69
2024/04/13 09:28:03;;;;;;;7.27;5.00;;;18.60;99.90;;;;;;5348321;26;20441;-69
2024/04/13 09:30:33;;;;;;;7.27;4.77;;;18.70;99.90;;;;;;5349561;26;20982;-69
2024/04/13 09:33:03;;;;;;;5.50;4.30;;;18.70;99.90;;;;;;5346358;26;20433;-69
2024/04/13 09:35:36;;;;;;;6.33;4.33;;;18.70;99.90;;;;;;5348281;26;20496;-69
2024/04/13 09:38:04;;;;;;;5.40;4.07;;;18.80;99.90;;;;;;5346871;26;20510;-68
2024/04/13 09:40:36;;;;;;;9.60;4.17;;;18.80;99.90;;;;;;5348146;26;20568;-69
2024/04/13 09:43:03;;;;;;;5.33;4.20;;;18.80;99.90;;;;;;5349658;26;20394;-69
2024/04/13 09:45:34;;;;;;;5.70;4.43;;;18.80;99.90;;;;;;5348113;26;20438;-69
2024/04/13 09:48:02;;;;;;;9.60;5.27;;;18.90;99.90;;;;;;5349403;26;20795;-69
2024/04/13 09:50:35;;;;;;;6.03;4.57;;;18.90;99.90;;;;;;5346143;26;20528;-69
2024/04/13 09:53:03;;;;;;;8.57;4.97;;;19.00;99.90;;;;;;5349365;26;20430;-69
2024/04/13 09:55:35;;;;;;;5.53;4.33;;;19.00;99.90;;;;;;5345895;26;20433;-69
2024/04/13 09:58:04;;;;;;;7.83;4.47;;;19.10;99.90;;;;;;5348824;26;20441;-69
2024/04/13 10:00:35;;;;;;;5.50;4.30;;;19.10;99.90;;;;;;5347890;26;20509;-69
2024/04/13 10:03:02;;;;;;;6.20;4.30;;;19.20;99.90;;;;;;5349252;26;20895;-69
2024/04/13 10:05:39;;;;;;;7.83;4.87;;;19.20;99.90;;;;;;5347818;26;20490;-68
2024/04/13 10:08:07;;;;;;;8.10;4.77;;;19.20;99.90;;;;;;5347780;26;20494;-69
2024/04/13 10:10:40;;;;;;;7.07;4.70;;;19.20;99.90;;;;;;5345985;26;20481;-69
2024/04/13 10:13:09;;;;;;;6.43;4.57;;;19.30;99.90;;;;;;5349477;26;20430;-69
2024/04/13 10:15:39;;;;;;;6.57;4.87;;;19.40;99.90;;;;;;5345485;26;20450;-69
2024/04/13 10:18:07;;;;;;;7.57;4.57;;;19.40;99.90;;;;;;5348862;26;20450;-69
2024/04/13 10:20:41;;;;;;;5.67;4.30;;;19.50;99.90;;;;;;5344334;26;20477;-69
2024/04/13 10:23:10;;;;;;;5.37;4.63;;;19.50;99.90;;;;;;5348481;26;20553;-69
2024/04/13 10:25:40;;;;;;;4.70;3.77;;;19.50;99.90;;;;;;5345602;26;20453;-69
2024/04/13 10:28:10;;;;;;;5.80;4.50;;;19.50;99.90;;;;;;5347156;26;20457;-69
2024/04/13 10:30:48;;;;;;;6.80;4.03;;;19.60;99.90;;;;;;5345458;26;20510;-69
2024/04/13 10:33:19;;;;;;;5.37;4.00;;;19.60;99.90;;;;;;5346999;26;20442;-69
2024/04/13 10:36:00;;;;;;;5.53;4.37;;;19.70;99.90;;;;;;5345076;26;21053;-69
2024/04/13 10:38:29;;;;;;;11.00;4.93;;;19.70;99.90;;;;;;5348262;26;20430;-68
2024/04/13 10:41:01;;;;;;;5.43;4.03;;;19.80;99.90;;;;;;5347030;26;20808;-69
2024/04/13 10:43:29;;;;;;;4.13;3.57;;;19.80;99.90;;;;;;5345087;26;20565;-69
2024/04/13 10:46:00;;;;;;;9.00;5.07;;;19.90;99.90;;;;;;5346840;26;20437;-69
2024/04/13 10:48:29;;;;;;;5.80;3.90;;;19.90;99.90;;;;;;5347038;26;20859;-69
2024/04/13 10:51:03;;;;;;;5.70;4.00;;;20.00;99.90;;;;;;5346610;26;20501;-69
2024/04/13 10:53:30;;;;;;;5.73;4.50;;;20.10;99.90;;;;;;5347993;26;20426;-69
2024/04/13 10:56:00;;;;;;;5.60;4.00;;;20.20;99.90;;;;;;5346472;26;20446;-69
2024/04/13 10:58:29;;;;;;;5.17;3.90;;;20.20;99.90;;;;;;5346921;26;20557;-67
2024/04/13 11:00:59;;;;;;;4.90;3.93;;;20.30;99.90;;;;;;5346595;26;20450;-69
2024/04/13 11:03:29;;;;;;;4.37;3.77;;;20.30;99.90;;;;;;5347742;26;20399;-68
2024/04/13 11:06:03;;;;;;;4.83;3.63;;;20.40;99.90;;;;;;5346999;26;20512;-69
2024/04/13 11:08:32;;;;;;;6.30;3.60;;;20.40;99.90;;;;;;5348305;26;20398;-69
2024/04/13 11:11:04;;;;;;;4.07;3.10;;;20.40;99.90;;;;;;5346746;26;20454;-69
2024/04/13 11:13:32;;;;;;;6.30;3.43;;;20.50;99.90;;;;;;5348167;26;20727;-69
2024/04/13 11:16:04;;;;;;;4.90;4.10;;;20.50;99.90;;;;;;5346342;26;20445;-68
2024/04/13 11:18:32;;;;;;;4.40;3.23;;;20.50;99.90;;;;;;5347379;26;20446;-68
2024/04/13 11:21:07;;;;;;;4.53;3.67;;;20.60;99.90;;;;;;5344309;26;21017;-69
2024/04/13 11:23:35;;;;;;;5.40;3.70;;;20.60;99.90;;;;;;5346609;26;20878;-69
2024/04/13 11:26:06;;;;;;;3.43;3.13;;;20.60;99.90;;;;;;5346192;26;20446;-68
2024/04/13 11:28:33;;;;;;;3.50;3.00;;;20.60;99.90;;;;;;5344273;26;20457;-69
2024/04/13 11:31:03;;;;;;;4.43;3.40;;;20.70;99.90;;;;;;5346787;26;20449;-69
2024/04/13 11:33:32;;;;;;;4.33;2.80;;;20.70;99.90;;;;;;5347742;26;20469;-68
2024/04/13 11:36:05;;;;;;;3.80;3.30;;;20.70;99.90;;;;;;5347608;26;20517;-69
2024/04/13 11:38:34;;;;;;;3.43;3.00;;;20.80;99.90;;;;;;5350479;26;20515;-68
2024/04/13 11:41:04;;;;;;;5.30;3.10;;;20.80;99.90;;;;;;5349717;26;20461;-68
2024/04/13 11:43:31;;;;;;;4.37;3.30;;;20.80;99.90;;;;;;5349452;26;20497;-69
2024/04/13 11:46:01;;;;;;;4.37;3.10;;;20.80;99.90;;;;;;5347737;26;20512;-69
2024/04/13 11:48:29;;;;;;;4.50;2.77;;;20.80;99.90;;;;;;5347607;26;20497;-69
2024/04/13 11:51:00;;;;;;;4.93;2.93;;;20.90;99.90;;;;;;5349220;26;20453;-69
2024/04/13 11:53:30;;;;;;;7.60;4.23;;;21.00;99.90;;;;;;5347437;26;20457;-69
2024/04/13 11:56:01;;;;;;;4.67;3.70;;;21.00;99.90;;;;;;5350166;26;20402;-68
2024/04/13 11:58:28;;;;;;;4.57;4.00;;;21.10;99.90;;;;;;5349165;26;20942;-69
2024/04/13 12:00:58;;;;;;;5.60;4.13;;;21.10;99.90;;;;;;5349509;26;20454;-68
2024/04/13 12:03:26;;;;;;;7.20;4.10;;;21.20;99.90;;;;;;5347748;26;20494;-68
2024/04/13 12:05:56;;;;;;;6.67;4.30;;;21.20;99.90;;;;;;5349559;26;20562;-68
2024/04/13 12:08:30;;;;;;;6.67;4.77;;;21.20;99.90;;;;;;5349690;26;21022;-69
2024/04/13 12:11:00;;;;;;;3.97;3.47;;;21.20;99.90;;;;;;5349315;26;20454;-69
2024/04/13 12:13:28;;;;;;;7.33;4.00;;;21.30;99.90;;;;;;5347627;26;20859;-68
2024/04/13 12:15:58;;;;;;;4.83;3.77;;;21.30;99.90;;;;;;5349207;26;20838;-69
2024/04/13 12:18:25;;;;;;;5.00;3.97;;;21.40;99.90;;;;;;5349595;26;20915;-68
2024/04/13 12:20:55;;;;;;;4.80;4.00;;;21.40;99.90;;;;;;5349303;26;20461;-69
2024/04/13 12:23:26;;;;;;;5.73;4.50;;;21.50;99.90;;;;;;5348810;26;20569;-69
2024/04/13 12:25:58;;;;;;;5.67;4.10;;;21.50;99.90;;;;;;5349982;26;20394;-69
2024/04/13 12:28:26;;;;;;;7.07;4.90;;;21.60;99.90;;;;;;5346867;26;20458;-68
2024/04/13 12:30:56;;;;;;;5.63;3.77;;;21.50;99.90;;;;;;5348655;26;20454;-68
2024/04/13 12:33:23;;;;;;;5.67;4.23;;;21.50;99.90;;;;;;5348568;26;20548;-68
2024/04/13 12:35:55;;;;;;;5.47;4.20;;;21.50;99.90;;;;;;5348551;26;20445;-69
2024/04/13 12:38:26;;;;;;;5.63;4.00;;;21.50;99.90;;;;;;5349716;26;20435;-69
2024/04/13 12:40:59;;;;;;;4.40;4.00;;;21.50;99.90;;;;;;5348422;26;20568;-68
2024/04/13 12:43:26;;;;;;;5.00;4.50;;;21.60;99.90;;;;;;5348661;26;20433;-69
2024/04/13 12:45:56;;;;;;;5.40;4.30;;;21.60;99.90;;;;;;5346577;26;20457;-69
2024/04/13 12:48:24;;;;;;;5.03;3.63;;;21.60;99.90;;;;;;5348511;26;20521;-69
2024/04/13 12:50:54;;;;;;;4.17;3.70;;;21.60;99.90;;;;;;5348687;26;21013;-68
2024/04/13 12:53:22;;;;;;;4.60;4.07;;;21.60;99.90;;;;;;5348273;26;20521;-69
2024/04/13 12:55:52;;;;;;;4.90;3.90;;;21.60;99.90;;;;;;5348267;26;20498;-68
2024/04/13 12:58:22;;;;;;;3.83;3.40;;;21.60;99.90;;;;;;5349566;26;20410;-68
2024/04/13 13:00:52;;;;;;;5.23;4.60;;;21.70;99.90;;;;;;5348127;26;21042;-69
2024/04/13 13:03:20;;;;;;;4.73;3.90;;;21.80;99.90;;;;;;5348155;26;20514;-69
2024/04/13 13:05:50;;;;;;;4.23;3.83;;;21.80;99.90;;;;;;5348165;26;20450;-68
2024/04/13 13:08:17;;;;;;;7.80;4.53;;;21.90;99.90;;;;;;5348202;26;20437;-69
2024/04/13 13:10:47;;;;;;;5.30;4.90;;;21.90;99.90;;;;;;5347951;26;20453;-69
2024/04/13 13:13:15;;;;;;;4.63;4.10;;;22.00;99.90;;;;;;5346314;26;20535;-69
2024/04/13 13:15:47;;;;;;;5.07;4.30;;;22.00;99.90;;;;;;5348024;26;20441;-69
2024/04/13 13:18:15;;;;;;;4.87;4.47;;;22.00;99.90;;;;;;5349323;26;20398;-69